createdAt,value
2023-05-03T00:00:44.736Z,7.60
2023-05-03T00:01:44.763Z,6.50
2023-05-03T00:02:45.135Z,8.30
2023-05-03T00:03:44.701Z,11.10
2023-05-03T00:04:44.735Z,7.30
2023-05-03T00:05:44.704Z,9.70
2023-05-03T00:06:44.709Z,7.50
2023-05-03T00:07:44.665Z,6.60
2023-05-03T00:08:44.650Z,9.20
2023-05-03T00:09:44.654Z,8.70
2023-05-03T00:10:44.646Z,9.00
2023-05-03T00:11:44.686Z,7.60
2023-05-03T00:12:44.624Z,7.30
2023-05-03T00:13:44.596Z,9.60
2023-05-03T00:14:44.600Z,9.80
2023-05-03T00:15:44.576Z,15.40
2023-05-03T00:16:44.605Z,11.10
2023-05-03T00:17:44.618Z,12.00
2023-05-03T00:18:44.549Z,10.70
2023-05-03T00:19:44.551Z,10.40
2023-05-03T00:20:44.519Z,8.70
2023-05-03T00:21:44.507Z,9.80
2023-05-03T00:22:44.519Z,10.60
2023-05-03T00:23:44.488Z,9.00
2023-05-03T00:24:44.493Z,8.80
2023-05-03T00:25:44.478Z,8.40
2023-05-03T00:26:44.458Z,9.50
2023-05-03T00:27:44.455Z,10.20
2023-05-03T00:28:44.456Z,8.90
2023-05-03T00:29:44.455Z,12.80
2023-05-03T00:30:44.450Z,12.30
2023-05-03T00:31:44.446Z,8.60
2023-05-03T00:32:44.422Z,10.60
2023-05-03T00:33:44.388Z,10.40
2023-05-03T00:34:44.388Z,10.70
2023-05-03T00:35:44.372Z,7.50
2023-05-03T00:36:44.358Z,9.00
2023-05-03T00:37:44.347Z,7.20
2023-05-03T00:38:44.339Z,8.30
2023-05-03T00:39:44.333Z,9.20
2023-05-03T00:40:44.312Z,9.30
2023-05-03T00:41:44.300Z,12.50
2023-05-03T00:42:44.293Z,9.90
2023-05-03T00:43:44.296Z,8.30
2023-05-03T00:44:44.348Z,10.50
2023-05-03T00:45:44.279Z,7.80
2023-05-03T00:46:44.296Z,8.20
2023-05-03T00:47:44.363Z,9.60
2023-05-03T00:48:44.234Z,10.50
2023-05-03T00:49:44.257Z,9.50
2023-05-03T00:50:44.213Z,7.50
2023-05-03T00:51:44.199Z,7.50
2023-05-03T00:52:44.193Z,7.60
2023-05-03T00:53:44.176Z,7.90
2023-05-03T00:54:44.177Z,9.60
2023-05-03T00:55:44.152Z,8.10
2023-05-03T00:56:51.605Z,9.60
2023-05-03T00:57:45.140Z,6.80
2023-05-03T00:58:44.131Z,7.60
2023-05-03T00:59:44.121Z,11.50
2023-05-03T01:00:44.128Z,11.70
2023-05-03T01:01:44.139Z,9.10
2023-05-03T01:02:44.182Z,9.60
2023-05-03T01:03:44.182Z,10.70
2023-05-03T01:04:44.094Z,11.00
2023-05-03T01:05:44.050Z,12.60
2023-05-03T01:06:44.077Z,11.10
2023-05-03T01:07:44.031Z,11.60
2023-05-03T01:08:44.025Z,10.90
2023-05-03T01:09:44.021Z,10.20
2023-05-03T01:10:44.000Z,10.30
2023-05-03T01:11:43.992Z,12.20
2023-05-03T01:12:43.980Z,11.90
2023-05-03T01:13:43.996Z,9.90
2023-05-03T01:14:43.973Z,11.50
2023-05-03T01:15:43.977Z,12.10
2023-05-03T01:16:44.010Z,10.00
2023-05-03T01:17:43.930Z,12.10
2023-05-03T01:18:43.923Z,13.00
2023-05-03T01:19:43.915Z,8.70
2023-05-03T01:20:43.913Z,8.40
2023-05-03T01:21:43.881Z,7.70
2023-05-03T01:22:43.877Z,6.70
2023-05-03T01:23:43.876Z,7.80
2023-05-03T01:24:43.862Z,8.20
2023-05-03T01:25:43.842Z,10.40
2023-05-03T01:26:43.832Z,8.10
2023-05-03T01:27:43.870Z,8.40
2023-05-03T01:28:43.813Z,8.20
2023-05-03T01:29:43.811Z,7.70
2023-05-03T01:30:43.792Z,9.30
2023-05-03T01:31:43.802Z,10.40
2023-05-03T01:32:43.846Z,11.70
2023-05-03T01:33:43.757Z,10.50
2023-05-03T01:34:44.877Z,9.20
2023-05-03T01:35:44.859Z,9.20
2023-05-03T01:36:44.852Z,10.40
2023-05-03T01:37:44.845Z,9.50
2023-05-03T01:38:44.831Z,10.30
2023-05-03T01:39:44.856Z,9.70
2023-05-03T01:40:44.815Z,7.50
2023-05-03T01:41:44.804Z,8.90
2023-05-03T01:42:44.794Z,9.20
2023-05-03T01:43:44.783Z,8.60
2023-05-03T01:44:44.785Z,8.30
2023-05-03T01:45:44.772Z,9.60
2023-05-03T01:46:44.753Z,8.30
2023-05-03T01:47:44.770Z,8.10
2023-05-03T01:48:44.746Z,10.90
2023-05-03T01:49:44.756Z,9.80
2023-05-03T01:50:44.751Z,8.30
2023-05-03T01:51:44.704Z,9.30
2023-05-03T01:52:44.692Z,9.70
2023-05-03T01:53:44.681Z,9.00
2023-05-03T01:54:44.709Z,9.30
2023-05-03T01:55:44.702Z,9.00
2023-05-03T01:56:44.663Z,8.00
2023-05-03T01:57:44.650Z,9.90
2023-05-03T01:58:44.647Z,8.80
2023-05-03T01:59:44.661Z,10.70
2023-05-03T02:00:44.641Z,10.50
2023-05-03T02:01:44.676Z,9.90
2023-05-03T02:02:44.626Z,6.80
2023-05-03T02:03:45.619Z,8.60
2023-05-03T02:04:44.607Z,10.70
2023-05-03T02:05:44.584Z,10.60
2023-05-03T02:06:44.635Z,11.10
2023-05-03T02:07:44.553Z,9.40
2023-05-03T02:08:44.543Z,9.70
2023-05-03T02:09:44.538Z,11.20
2023-05-03T02:10:44.516Z,9.10
2023-05-03T02:11:44.514Z,8.00
2023-05-03T02:12:44.503Z,10.30
2023-05-03T02:13:44.492Z,7.40
2023-05-03T02:14:44.488Z,9.70
2023-05-03T02:15:44.470Z,8.70
2023-05-03T02:16:44.507Z,11.10
2023-05-03T02:17:44.475Z,9.20
2023-05-03T02:18:44.443Z,10.40
2023-05-03T02:19:44.456Z,9.40
2023-05-03T02:20:44.433Z,10.40
2023-05-03T02:21:44.408Z,8.50
2023-05-03T02:22:44.398Z,8.10
2023-05-03T02:23:44.402Z,9.80
2023-05-03T02:24:44.409Z,11.30
2023-05-03T02:25:44.382Z,8.90
2023-05-03T02:26:44.378Z,9.40
2023-05-03T02:27:44.354Z,9.60
2023-05-03T02:28:44.346Z,7.60
2023-05-03T02:29:44.348Z,9.00
2023-05-03T02:30:44.375Z,8.00
2023-05-03T02:31:44.318Z,10.00
2023-05-03T02:32:44.351Z,7.70
2023-05-03T02:33:44.295Z,8.10
2023-05-03T02:34:44.299Z,9.40
2023-05-03T02:35:44.287Z,9.30
2023-05-03T02:36:44.263Z,11.30
2023-05-03T02:37:44.259Z,9.20
2023-05-03T02:38:44.255Z,9.00
2023-05-03T02:39:44.253Z,8.70
2023-05-03T02:40:44.248Z,8.40
2023-05-03T02:41:44.229Z,12.70
2023-05-03T02:42:44.218Z,9.30
2023-05-03T02:43:44.195Z,6.30
2023-05-03T02:44:44.217Z,9.60
2023-05-03T02:45:44.189Z,8.80
2023-05-03T02:46:44.203Z,7.90
2023-05-03T02:47:44.204Z,8.90
2023-05-03T02:48:44.161Z,9.30
2023-05-03T02:49:44.168Z,9.90
2023-05-03T02:50:44.136Z,10.90
2023-05-03T02:51:44.128Z,11.50
2023-05-03T02:52:44.124Z,9.40
2023-05-03T02:53:44.116Z,8.60
2023-05-03T02:54:44.114Z,10.40
2023-05-03T02:55:44.093Z,8.60
2023-05-03T02:56:44.079Z,6.20
2023-05-03T02:57:44.068Z,6.20
2023-05-03T02:58:44.071Z,6.40
2023-05-03T02:59:44.060Z,11.30
2023-05-03T03:00:44.048Z,7.30
2023-05-03T03:01:44.106Z,11.10
2023-05-03T03:02:44.168Z,8.60
2023-05-03T03:03:44.101Z,10.40
2023-05-03T03:04:44.025Z,8.60
2023-05-03T03:05:43.990Z,7.30
2023-05-03T03:06:44.014Z,8.40
2023-05-03T03:07:44.987Z,8.00
2023-05-03T03:08:43.967Z,7.70
2023-05-03T03:09:43.955Z,9.10
2023-05-03T03:10:43.961Z,8.00
2023-05-03T03:11:43.933Z,10.20
2023-05-03T03:12:43.943Z,11.00
2023-05-03T03:13:43.922Z,9.20
2023-05-03T03:14:43.912Z,12.80
2023-05-03T03:15:43.935Z,8.60
2023-05-03T03:16:43.887Z,12.00
2023-05-03T03:17:43.953Z,12.40
2023-05-03T03:18:43.867Z,10.50
2023-05-03T03:19:43.865Z,11.80
2023-05-03T03:20:43.872Z,11.20
2023-05-03T03:21:43.839Z,12.10
2023-05-03T03:22:43.842Z,12.80
2023-05-03T03:23:43.821Z,9.10
2023-05-03T03:24:43.809Z,9.40
2023-05-03T03:25:43.795Z,10.40
2023-05-03T03:26:43.789Z,8.90
2023-05-03T03:27:43.787Z,10.20
2023-05-03T03:28:43.774Z,10.50
2023-05-03T03:29:43.761Z,9.10
2023-05-03T03:30:43.773Z,12.00
2023-05-03T03:31:43.791Z,9.70
2023-05-03T03:32:43.832Z,10.50
2023-05-03T03:33:43.717Z,10.00
2023-05-03T03:34:43.742Z,8.60
2023-05-03T03:35:43.704Z,7.20
2023-05-03T03:36:43.699Z,11.50
2023-05-03T03:37:43.690Z,10.50
2023-05-03T03:38:43.682Z,12.40
2023-05-03T03:39:43.663Z,12.70
2023-05-03T03:40:43.669Z,12.10
2023-05-03T03:41:43.644Z,12.30
2023-05-03T03:42:43.643Z,12.30
2023-05-03T03:43:43.622Z,12.20
2023-05-03T03:44:43.650Z,9.20
2023-05-03T03:45:43.607Z,8.60
2023-05-03T03:46:43.679Z,9.10
2023-05-03T03:47:43.612Z,12.40
2023-05-03T03:48:43.575Z,10.20
2023-05-03T03:49:43.591Z,11.30
2023-05-03T03:50:43.563Z,10.70
2023-05-03T03:51:43.556Z,10.30
2023-05-03T03:52:43.549Z,16.60
2023-05-03T03:53:43.551Z,10.90
2023-05-03T03:54:43.537Z,14.10
2023-05-03T03:55:43.514Z,10.70
2023-05-03T03:56:43.538Z,10.30
2023-05-03T03:57:43.496Z,7.50
2023-05-03T03:58:43.500Z,9.90
2023-05-03T03:59:43.496Z,10.10
2023-05-03T04:00:43.478Z,10.10
2023-05-03T04:01:43.494Z,9.40
2023-05-03T04:02:43.529Z,8.80
2023-05-03T04:03:43.553Z,11.10
2023-05-03T04:04:43.445Z,12.10
2023-05-03T04:05:43.418Z,11.40
2023-05-03T04:06:43.464Z,8.70
2023-05-03T04:07:43.424Z,9.80
2023-05-03T04:08:43.417Z,11.10
2023-05-03T04:09:43.411Z,9.00
2023-05-03T04:10:43.382Z,11.30
2023-05-03T04:11:43.369Z,12.00
2023-05-03T04:12:43.352Z,12.50
2023-05-03T04:13:43.362Z,13.30
2023-05-03T04:14:43.345Z,10.10
2023-05-03T04:15:43.344Z,12.60
2023-05-03T04:16:43.368Z,9.20
2023-05-03T04:17:43.360Z,12.10
2023-05-03T04:18:43.299Z,14.20
2023-05-03T04:19:43.281Z,13.70
2023-05-03T04:20:43.301Z,12.90
2023-05-03T04:21:43.271Z,13.10
2023-05-03T04:22:43.260Z,16.30
2023-05-03T04:23:43.241Z,15.20
2023-05-03T04:24:43.231Z,14.50
2023-05-03T04:25:43.241Z,14.50
2023-05-03T04:26:43.213Z,18.80
2023-05-03T04:27:43.216Z,11.70
2023-05-03T04:28:43.207Z,13.90
2023-05-03T04:29:43.197Z,11.70
2023-05-03T04:30:43.248Z,11.90
2023-05-03T04:31:43.169Z,11.40
2023-05-03T04:32:43.217Z,10.60
2023-05-03T04:33:43.147Z,11.90
2023-05-03T04:34:43.138Z,14.20
2023-05-03T04:35:43.142Z,10.30
2023-05-03T04:36:43.112Z,12.00
2023-05-03T04:37:43.108Z,12.30
2023-05-03T04:38:43.116Z,8.90
2023-05-03T04:39:43.092Z,11.20
2023-05-03T04:40:43.095Z,11.00
2023-05-03T04:41:43.086Z,11.70
2023-05-03T04:42:43.069Z,11.40
2023-05-03T04:43:43.070Z,10.10
2023-05-03T04:44:43.055Z,11.10
2023-05-03T04:45:43.031Z,9.90
2023-05-03T04:46:43.054Z,11.50
2023-05-03T04:47:43.077Z,11.50
2023-05-03T04:48:43.004Z,15.60
2023-05-03T04:49:42.983Z,11.90
2023-05-03T04:50:42.990Z,11.60
2023-05-03T04:51:42.983Z,11.20
2023-05-03T04:52:42.967Z,11.20
2023-05-03T04:53:42.956Z,11.10
2023-05-03T04:54:42.951Z,10.90
2023-05-03T04:55:42.961Z,10.00
2023-05-03T04:56:43.002Z,11.40
2023-05-03T04:57:42.930Z,9.70
2023-05-03T04:58:42.914Z,10.60
2023-05-03T04:59:42.891Z,8.80
2023-05-03T05:00:42.877Z,11.90
2023-05-03T05:01:42.981Z,11.20
2023-05-03T05:02:42.889Z,11.50
2023-05-03T05:03:42.965Z,13.40
2023-05-03T05:04:42.840Z,10.30
2023-05-03T05:05:42.832Z,11.50
2023-05-03T05:06:42.829Z,12.00
2023-05-03T05:07:42.887Z,12.80
2023-05-03T05:08:42.791Z,11.10
2023-05-03T05:09:42.786Z,12.70
2023-05-03T05:10:42.789Z,13.90
2023-05-03T05:11:42.762Z,14.20
2023-05-03T05:12:42.751Z,13.60
2023-05-03T05:13:42.750Z,12.90
2023-05-03T05:14:42.742Z,14.50
2023-05-03T05:15:42.729Z,15.20
2023-05-03T05:16:42.774Z,14.40
2023-05-03T05:17:42.784Z,13.30
2023-05-03T05:18:42.684Z,14.40
2023-05-03T05:19:42.690Z,16.40
2023-05-03T05:20:42.673Z,12.00
2023-05-03T05:21:42.674Z,13.40
2023-05-03T05:22:42.642Z,13.00
2023-05-03T05:23:42.728Z,14.00
2023-05-03T05:24:42.631Z,14.50
2023-05-03T05:25:42.633Z,15.10
2023-05-03T05:26:42.626Z,15.80
2023-05-03T05:27:42.607Z,12.50
2023-05-03T05:28:42.597Z,13.60
2023-05-03T05:29:42.598Z,13.60
2023-05-03T05:30:42.572Z,13.70
2023-05-03T05:31:42.602Z,14.80
2023-05-03T05:32:42.601Z,13.30
2023-05-03T05:33:42.532Z,17.90
2023-05-03T05:34:45.557Z,12.70
2023-05-03T05:35:43.528Z,13.90
2023-05-03T05:36:42.536Z,13.70
2023-05-03T05:37:42.491Z,14.10
2023-05-03T05:38:42.491Z,15.00
2023-05-03T05:39:42.556Z,14.00
2023-05-03T05:40:42.485Z,13.70
2023-05-03T05:41:42.545Z,15.30
2023-05-03T05:42:42.478Z,13.90
2023-05-03T05:43:42.455Z,15.40
2023-05-03T05:44:42.452Z,14.30
2023-05-03T05:45:42.476Z,15.00
2023-05-03T05:46:42.496Z,15.70
2023-05-03T05:47:42.453Z,12.60
2023-05-03T05:48:42.419Z,13.40
2023-05-03T05:49:42.403Z,12.40
2023-05-03T05:50:42.380Z,15.00
2023-05-03T05:51:42.409Z,13.70
2023-05-03T05:52:42.380Z,12.70
2023-05-03T05:53:42.356Z,12.30
2023-05-03T05:54:42.347Z,13.20
2023-05-03T05:55:42.352Z,12.50
2023-05-03T05:56:42.332Z,13.00
2023-05-03T05:57:42.344Z,12.70
2023-05-03T05:58:42.322Z,12.00
2023-05-03T05:59:42.318Z,10.70
2023-05-03T06:00:42.283Z,11.30
2023-05-03T06:01:42.294Z,11.00
2023-05-03T06:02:42.417Z,11.30
2023-05-03T06:03:42.249Z,10.80
2023-05-03T06:04:42.292Z,11.10
2023-05-03T06:05:42.551Z,11.60
2023-05-03T06:06:42.251Z,10.50
2023-05-03T06:07:42.195Z,11.20
2023-05-03T06:08:42.186Z,11.80
2023-05-03T06:09:42.208Z,10.50
2023-05-03T06:10:42.288Z,13.00
2023-05-03T06:11:42.173Z,11.80
2023-05-03T06:12:42.161Z,13.80
2023-05-03T06:13:42.157Z,11.90
2023-05-03T06:14:48.963Z,11.00
2023-05-03T06:15:44.207Z,13.20
2023-05-03T06:16:42.187Z,11.80
2023-05-03T06:17:42.245Z,12.50
2023-05-03T06:18:42.201Z,12.50
2023-05-03T06:19:44.412Z,10.90
2023-05-03T06:20:42.148Z,12.90
2023-05-03T06:21:42.112Z,12.70
2023-05-03T06:22:42.125Z,13.70
2023-05-03T06:23:42.083Z,11.00
2023-05-03T06:24:42.116Z,12.20
2023-05-03T06:25:42.078Z,15.30
2023-05-03T06:26:42.098Z,12.70
2023-05-03T06:27:42.075Z,11.40
2023-05-03T06:28:42.062Z,13.30
2023-05-03T06:29:42.029Z,14.10
2023-05-03T06:30:42.144Z,12.50
2023-05-03T06:31:42.101Z,13.30
2023-05-03T06:32:42.061Z,13.90
2023-05-03T06:33:42.022Z,15.00
2023-05-03T06:34:41.991Z,11.80
2023-05-03T06:35:41.955Z,14.30
2023-05-03T06:36:41.997Z,13.90
2023-05-03T06:37:41.919Z,12.60
2023-05-03T06:38:41.924Z,11.20
2023-05-03T06:39:41.943Z,10.10
2023-05-03T06:40:41.949Z,11.90
2023-05-03T06:41:41.914Z,11.80
2023-05-03T06:42:41.845Z,11.50
2023-05-03T06:43:41.949Z,13.20
2023-05-03T06:44:41.829Z,11.40
2023-05-03T06:45:41.828Z,12.30
2023-05-03T06:46:41.846Z,10.60
2023-05-03T06:47:41.838Z,11.90
2023-05-03T06:48:41.842Z,10.60
2023-05-03T06:49:41.768Z,11.20
2023-05-03T06:50:41.763Z,11.30
2023-05-03T06:51:41.773Z,9.70
2023-05-03T06:52:41.735Z,11.00
2023-05-03T06:53:41.731Z,13.20
2023-05-03T06:54:41.741Z,11.90
2023-05-03T06:55:41.720Z,9.00
2023-05-03T06:56:41.711Z,11.00
2023-05-03T06:57:41.749Z,12.10
2023-05-03T06:58:41.703Z,9.80
2023-05-03T06:59:42.620Z,6.50
2023-05-03T07:00:41.686Z,8.30
2023-05-03T07:01:41.757Z,6.70
2023-05-03T07:02:41.780Z,8.50
2023-05-03T07:03:42.097Z,7.50
2023-05-03T07:04:42.652Z,8.50
2023-05-03T07:05:41.670Z,8.70
2023-05-03T07:06:55.394Z,8.60
2023-05-03T07:07:43.628Z,9.20
2023-05-03T07:08:41.626Z,9.70
2023-05-03T07:09:43.501Z,9.60
2023-05-03T07:10:42.591Z,7.70
2023-05-03T07:11:41.604Z,4.30
2023-05-03T07:12:41.618Z,7.60
2023-05-03T07:13:41.573Z,3.90
2023-05-03T07:14:41.590Z,5.50
2023-05-03T07:15:41.632Z,5.10
2023-05-03T07:16:41.571Z,4.10
2023-05-03T07:17:41.586Z,7.10
2023-05-03T07:18:42.563Z,4.80
2023-05-03T07:19:41.530Z,5.20
2023-05-03T07:20:41.517Z,4.90
2023-05-03T07:21:41.495Z,5.40
2023-05-03T07:22:41.509Z,5.70
2023-05-03T07:23:41.489Z,6.00
2023-05-03T07:24:41.484Z,4.50
2023-05-03T07:25:41.450Z,5.40
2023-05-03T07:26:43.642Z,5.70
2023-05-03T07:27:41.463Z,5.30
2023-05-03T07:28:41.454Z,4.30
2023-05-03T07:29:41.530Z,7.10
2023-05-03T07:30:41.390Z,4.10
2023-05-03T07:31:41.715Z,5.60
2023-05-03T07:32:41.467Z,6.50
2023-05-03T07:33:41.489Z,5.70
2023-05-03T07:34:41.344Z,4.80
2023-05-03T07:35:41.346Z,5.40
2023-05-03T07:36:41.421Z,4.70
2023-05-03T07:37:41.340Z,4.50
2023-05-03T07:38:41.356Z,3.80
2023-05-03T07:39:41.331Z,4.60
2023-05-03T07:40:41.305Z,5.90
2023-05-03T07:41:41.326Z,5.60
2023-05-03T07:42:41.274Z,3.60
2023-05-03T07:43:41.525Z,6.80
2023-05-03T07:44:41.291Z,5.40
2023-05-03T07:45:41.322Z,4.10
2023-05-03T07:46:41.269Z,5.90
2023-05-03T07:47:41.287Z,5.10
2023-05-03T07:48:42.708Z,5.40
2023-05-03T07:49:41.242Z,3.40
2023-05-03T07:50:41.235Z,5.10
2023-05-03T07:51:41.215Z,5.50
2023-05-03T07:52:41.198Z,5.20
2023-05-03T07:53:41.178Z,4.40
2023-05-03T07:54:41.178Z,5.10
2023-05-03T07:55:41.185Z,4.80
2023-05-03T07:56:41.142Z,5.90
2023-05-03T07:57:41.170Z,6.50
2023-05-03T07:58:42.460Z,6.80
2023-05-03T07:59:42.125Z,5.50
2023-05-03T08:00:41.130Z,5.40
2023-05-03T08:01:41.119Z,6.00
2023-05-03T08:02:41.281Z,6.60
2023-05-03T08:03:41.327Z,5.70
2023-05-03T08:04:41.334Z,5.40
2023-05-03T08:05:41.141Z,6.50
2023-05-03T08:06:41.158Z,5.70
2023-05-03T08:07:41.056Z,5.80
2023-05-03T08:08:41.014Z,5.00
2023-05-03T08:09:41.030Z,6.40
2023-05-03T08:10:41.046Z,5.30
2023-05-03T08:11:43.767Z,6.10
2023-05-03T08:12:41.026Z,6.80
2023-05-03T08:13:40.990Z,6.80
2023-05-03T08:14:40.961Z,7.80
2023-05-03T08:15:41.005Z,5.10
2023-05-03T08:16:41.014Z,3.70
2023-05-03T08:17:40.965Z,4.60
2023-05-03T08:18:40.944Z,4.40
2023-05-03T08:19:41.125Z,5.80
2023-05-03T08:20:40.921Z,4.30
2023-05-03T08:21:40.911Z,4.80
2023-05-03T08:22:40.872Z,5.90
2023-05-03T08:23:40.887Z,5.30
2023-05-03T08:24:40.867Z,6.20
2023-05-03T08:25:40.861Z,6.60
2023-05-03T08:26:41.916Z,6.20
2023-05-03T08:27:40.859Z,5.30
2023-05-03T08:28:40.820Z,7.60
2023-05-03T08:29:40.817Z,5.00
2023-05-03T08:30:40.831Z,5.10
2023-05-03T08:31:40.835Z,7.80
2023-05-03T08:32:41.741Z,7.00
2023-05-03T08:33:40.804Z,5.90
2023-05-03T08:34:40.797Z,5.00
2023-05-03T08:35:40.808Z,6.10
2023-05-03T08:36:40.770Z,4.90
2023-05-03T08:37:40.837Z,7.10
2023-05-03T08:38:40.781Z,6.70
2023-05-03T08:39:40.708Z,3.80
2023-05-03T08:40:40.717Z,5.10
2023-05-03T08:41:40.706Z,5.90
2023-05-03T08:42:40.739Z,6.00
2023-05-03T08:43:40.714Z,6.60
2023-05-03T08:44:40.670Z,4.80
2023-05-03T08:45:40.711Z,7.20
2023-05-03T08:46:40.695Z,7.80
2023-05-03T08:47:40.680Z,6.90
2023-05-03T08:48:40.616Z,5.20
2023-05-03T08:49:40.661Z,5.10
2023-05-03T08:50:40.616Z,5.50
2023-05-03T08:51:40.629Z,4.90
2023-05-03T08:52:40.730Z,6.40
2023-05-03T08:53:40.557Z,5.50
2023-05-03T08:54:40.555Z,5.80
2023-05-03T08:55:40.584Z,7.70
2023-05-03T08:56:40.563Z,7.50
2023-05-03T08:57:40.624Z,3.70
2023-05-03T08:58:40.557Z,6.80
2023-05-03T08:59:40.533Z,7.70
2023-05-03T09:00:40.508Z,6.50
2023-05-03T09:01:40.593Z,6.20
2023-05-03T09:02:40.624Z,8.20
2023-05-03T09:03:40.554Z,7.30
2023-05-03T09:04:40.474Z,8.60
2023-05-03T09:05:40.477Z,6.10
2023-05-03T09:06:40.486Z,7.40
2023-05-03T09:07:40.448Z,5.60
2023-05-03T09:08:40.393Z,4.20
2023-05-03T09:09:40.445Z,6.10
2023-05-03T09:10:40.459Z,6.50
2023-05-03T09:11:40.424Z,6.50
2023-05-03T09:12:40.461Z,5.60
2023-05-03T09:13:40.385Z,7.30
2023-05-03T09:14:40.514Z,4.90
2023-05-03T09:15:40.386Z,5.00
2023-05-03T09:16:40.410Z,5.70
2023-05-03T09:17:40.396Z,5.00
2023-05-03T09:18:40.323Z,5.50
2023-05-03T09:19:40.344Z,5.80
2023-05-03T09:20:40.367Z,5.80
2023-05-03T09:21:40.305Z,5.50
2023-05-03T09:22:40.290Z,5.70
2023-05-03T09:23:40.379Z,6.50
2023-05-03T09:24:40.301Z,6.30
2023-05-03T09:25:40.249Z,4.90
2023-05-03T09:26:40.361Z,5.80
2023-05-03T09:27:40.250Z,4.60
2023-05-03T09:28:41.243Z,6.00
2023-05-03T09:29:40.221Z,5.20
2023-05-03T09:30:40.246Z,3.90
2023-05-03T09:31:40.240Z,3.30
2023-05-03T09:32:40.208Z,6.20
2023-05-03T09:33:40.195Z,4.40
2023-05-03T09:34:40.225Z,4.90
2023-05-03T09:35:40.158Z,5.20
2023-05-03T09:36:40.184Z,5.60
2023-05-03T09:37:40.171Z,8.70
2023-05-03T09:38:40.146Z,6.20
2023-05-03T09:39:40.166Z,4.10
2023-05-03T09:40:40.138Z,7.40
2023-05-03T09:41:40.102Z,6.10
2023-05-03T09:42:40.110Z,4.40
2023-05-03T09:43:40.092Z,4.20
2023-05-03T09:44:40.097Z,4.70
2023-05-03T09:45:40.097Z,6.60
2023-05-03T09:46:40.048Z,3.90
2023-05-03T09:47:40.132Z,4.70
2023-05-03T09:48:40.038Z,4.50
2023-05-03T09:49:40.069Z,6.40
2023-05-03T09:50:40.074Z,4.50
2023-05-03T09:51:40.031Z,6.10
2023-05-03T09:52:39.983Z,5.00
2023-05-03T09:53:39.990Z,5.80
2023-05-03T09:54:39.959Z,5.00
2023-05-03T09:55:39.983Z,4.80
2023-05-03T09:56:39.981Z,4.60
2023-05-03T09:57:39.930Z,3.70
2023-05-03T09:58:39.981Z,6.80
2023-05-03T09:59:40.057Z,4.80
2023-05-03T10:00:39.901Z,4.40
2023-05-03T10:01:39.982Z,5.10
2023-05-03T10:02:40.023Z,6.70
2023-05-03T10:03:39.958Z,5.30
2023-05-03T10:04:39.914Z,4.30
2023-05-03T10:05:39.858Z,5.50
2023-05-03T10:06:39.909Z,4.00
2023-05-03T10:07:39.855Z,4.90
2023-05-03T10:08:39.843Z,4.60
2023-05-03T10:09:39.817Z,3.50
2023-05-03T10:10:39.824Z,5.10
2023-05-03T10:11:39.775Z,5.40
2023-05-03T10:12:39.820Z,4.10
2023-05-03T10:13:39.764Z,5.20
2023-05-03T10:14:39.800Z,6.00
2023-05-03T10:15:39.837Z,5.90
2023-05-03T10:16:39.793Z,4.30
2023-05-03T10:18:40.742Z,5.00
2023-05-03T10:19:39.830Z,5.20
2023-05-03T10:20:39.731Z,5.00
2023-05-03T10:21:39.673Z,7.10
2023-05-03T10:22:39.713Z,5.40
2023-05-03T10:23:39.680Z,6.70
2023-05-03T10:24:39.679Z,5.70
2023-05-03T10:25:39.649Z,4.70
2023-05-03T10:26:39.634Z,4.60
2023-05-03T10:27:39.654Z,6.30
2023-05-03T10:28:39.649Z,4.70
2023-05-03T10:29:39.607Z,5.70
2023-05-03T10:30:39.591Z,6.30
2023-05-03T10:31:39.631Z,7.00
2023-05-03T10:32:39.649Z,5.60
2023-05-03T10:33:39.550Z,3.80
2023-05-03T10:34:39.527Z,6.00
2023-05-03T10:35:39.538Z,6.20
2023-05-03T10:36:48.948Z,6.00
2023-05-03T10:37:41.557Z,5.00
2023-05-03T10:38:45.611Z,3.40
2023-05-03T10:39:40.516Z,5.00
2023-05-03T10:40:39.496Z,4.60
2023-05-03T10:41:39.452Z,3.00
2023-05-03T10:42:39.458Z,7.00
2023-05-03T10:43:39.437Z,4.30
2023-05-03T10:44:39.448Z,6.80
2023-05-03T10:45:39.422Z,3.50
2023-05-03T10:46:39.446Z,4.10
2023-05-03T10:47:39.429Z,4.50
2023-05-03T10:48:39.428Z,4.60
2023-05-03T10:49:39.367Z,5.70
2023-05-03T10:50:39.442Z,4.80
2023-05-03T10:51:39.402Z,3.70
2023-05-03T10:52:39.417Z,4.60
2023-05-03T10:53:39.399Z,4.00
2023-05-03T10:54:39.356Z,3.60
2023-05-03T10:55:39.343Z,4.10
2023-05-03T10:56:39.349Z,3.70
2023-05-03T10:57:40.337Z,3.90
2023-05-03T10:58:40.361Z,4.80
2023-05-03T10:59:39.395Z,4.00
2023-05-03T11:00:39.330Z,5.10
2023-05-03T11:01:39.337Z,5.60
2023-05-03T11:02:39.320Z,4.50
2023-05-03T11:03:39.277Z,5.40
2023-05-03T11:04:39.308Z,4.60
2023-05-03T11:05:41.019Z,3.30
2023-05-03T11:06:39.259Z,3.40
2023-05-03T11:07:39.199Z,5.00
2023-05-03T11:08:39.192Z,4.60
2023-05-03T11:09:39.226Z,4.70
2023-05-03T11:10:39.185Z,4.40
2023-05-03T11:11:39.143Z,3.90
2023-05-03T11:12:39.154Z,4.00
2023-05-03T11:13:39.230Z,4.80
2023-05-03T11:14:39.140Z,3.40
2023-05-03T11:15:39.130Z,3.70
2023-05-03T11:16:39.177Z,3.50
2023-05-03T11:17:39.156Z,3.00
2023-05-03T11:18:39.129Z,4.70
2023-05-03T11:19:39.049Z,5.00
2023-05-03T11:20:40.057Z,5.30
2023-05-03T11:21:39.040Z,4.80
2023-05-03T11:22:39.073Z,4.00
2023-05-03T11:23:39.105Z,3.90
2023-05-03T11:24:39.029Z,7.00
2023-05-03T11:25:39.016Z,4.50
2023-05-03T11:26:39.016Z,4.10
2023-05-03T11:27:39.054Z,4.20
2023-05-03T11:28:38.992Z,4.90
2023-05-03T11:29:39.039Z,3.70
2023-05-03T11:30:38.993Z,3.90
2023-05-03T11:31:39.080Z,3.80
2023-05-03T11:32:39.065Z,2.60
2023-05-03T11:33:39.062Z,3.50
2023-05-03T11:34:38.965Z,4.20
2023-05-03T11:35:38.955Z,3.00
2023-05-03T11:36:38.946Z,3.50
2023-05-03T11:37:38.914Z,3.50
2023-05-03T11:38:39.011Z,3.70
2023-05-03T11:39:38.939Z,4.30
2023-05-03T11:40:38.909Z,3.40
2023-05-03T11:41:38.932Z,3.20
2023-05-03T11:42:38.878Z,3.10
2023-05-03T11:43:38.874Z,4.20
2023-05-03T11:44:38.872Z,3.00
2023-05-03T11:45:38.915Z,4.30
2023-05-03T11:46:39.049Z,4.50
2023-05-03T11:47:38.959Z,3.30
2023-05-03T11:48:38.939Z,4.20
2023-05-03T11:49:38.775Z,3.90
2023-05-03T11:50:38.785Z,4.10
2023-05-03T11:51:38.778Z,4.40
2023-05-03T11:52:38.765Z,3.10
2023-05-03T11:53:38.770Z,2.50
2023-05-03T11:54:38.773Z,2.80
2023-05-03T11:55:38.717Z,4.30
2023-05-03T11:56:38.743Z,3.90
2023-05-03T11:57:38.723Z,3.00
2023-05-03T11:58:38.727Z,2.90
2023-05-03T11:59:38.720Z,3.00
2023-05-03T12:00:38.684Z,4.20
2023-05-03T12:01:38.811Z,4.20
2023-05-03T12:02:38.780Z,5.30
2023-05-03T12:03:38.785Z,3.00
2023-05-03T12:04:39.141Z,3.70
2023-05-03T12:05:39.387Z,3.20
2023-05-03T12:06:39.909Z,4.70
2023-05-03T12:07:38.803Z,2.30
2023-05-03T12:08:41.519Z,3.50
2023-05-03T12:09:40.356Z,5.20
2023-05-03T12:10:38.828Z,3.60
2023-05-03T12:11:39.834Z,2.20
2023-05-03T12:12:43.543Z,2.90
2023-05-03T12:13:41.198Z,2.80
2023-05-03T12:14:39.239Z,3.40
2023-05-03T12:15:40.610Z,3.80
2023-05-03T12:18:05.167Z,3.30
2023-05-03T12:19:04.793Z,3.90
2023-05-03T12:20:42.012Z,3.40
2023-05-03T12:21:30.888Z,5.10
2023-05-03T12:22:24.069Z,2.80
2023-05-03T12:23:05.829Z,3.10
2023-05-03T12:24:06.049Z,3.00
2023-05-03T12:25:04.904Z,2.50
2023-05-03T12:26:05.490Z,2.50
2023-05-03T12:27:04.528Z,3.40
2023-05-03T12:28:17.867Z,3.30
2023-05-03T12:29:06.695Z,2.10
2023-05-03T12:30:04.959Z,5.80
2023-05-03T12:31:05.380Z,3.30
2023-05-03T12:32:05.172Z,4.60
2023-05-03T12:33:05.268Z,4.00
2023-05-03T12:34:30.986Z,3.30
2023-05-03T12:35:08.174Z,2.70
2023-05-03T12:36:04.612Z,1.70
2023-05-03T12:37:05.749Z,3.50
2023-05-03T12:38:04.697Z,3.00
2023-05-03T12:39:05.777Z,4.60
2023-05-03T12:41:05.590Z,2.80
2023-05-03T12:42:06.751Z,2.10
2023-05-03T12:43:04.581Z,2.20
2023-05-03T12:44:04.412Z,2.80
2023-05-03T12:45:05.008Z,2.90
2023-05-03T12:47:09.560Z,4.50
2023-05-03T12:48:04.337Z,3.00
2023-05-03T12:50:06.311Z,2.90
2023-05-03T12:51:18.529Z,3.20
2023-05-03T12:52:35.234Z,2.70
2023-05-03T12:53:08.896Z,2.70
2023-05-03T12:54:04.330Z,2.70
2023-05-03T12:55:04.564Z,2.60
2023-05-03T12:56:06.617Z,4.30
2023-05-03T12:57:07.941Z,3.00
2023-05-03T12:59:35.587Z,3.30
2023-05-03T13:00:05.386Z,3.00
2023-05-03T13:01:37.857Z,1.90
2023-05-03T13:02:41.578Z,2.00
2023-05-03T13:06:11.785Z,4.60
2023-05-03T13:09:04.205Z,3.50
2023-05-03T13:11:05.089Z,2.30
2023-05-03T13:12:04.299Z,3.40
2023-05-03T13:13:04.029Z,3.00
2023-05-03T13:14:04.019Z,5.10
2023-05-03T13:15:04.593Z,3.20
2023-05-03T13:16:04.012Z,3.30
2023-05-03T13:17:04.004Z,3.40
2023-05-03T13:18:04.276Z,3.50
2023-05-03T13:19:03.995Z,3.30
2023-05-03T13:20:03.940Z,4.00
2023-05-03T13:21:03.929Z,3.80
2023-05-03T13:22:03.925Z,3.20